createdAt,value
2023-04-27T00:00:29.627Z,1.8
2023-04-27T00:05:29.489Z,1.9
2023-04-27T00:10:18.392Z,1.9
2023-04-27T00:15:24.438Z,1.7
2023-04-27T00:20:30.556Z,2.2
2023-04-27T00:25:19.571Z,1.8
2023-04-27T00:30:25.785Z,1.8
2023-04-27T00:35:31.774Z,2.0
2023-04-27T00:40:22.024Z,2.0
2023-04-27T00:45:26.873Z,2.2
2023-04-27T00:50:17.726Z,2.2
2023-04-27T00:55:21.610Z,2.3
2023-04-27T01:00:29.543Z,1.9
2023-04-27T01:05:16.765Z,2.4
2023-04-27T01:10:23.143Z,2.1
2023-04-27T01:15:29.190Z,2.3
2023-04-27T01:20:18.094Z,1.8
2023-04-27T01:25:24.089Z,2.2
2023-04-27T01:30:30.431Z,2.0
2023-04-27T01:35:19.085Z,2.2
2023-04-27T01:40:26.723Z,2.1
2023-04-27T01:45:31.301Z,2.1
2023-04-27T01:50:20.041Z,2.0
2023-04-27T01:55:26.108Z,2.0
2023-04-27T02:00:37.921Z,2.1
2023-04-27T02:05:20.651Z,2.3
2023-04-27T02:10:26.763Z,2.1
2023-04-27T02:15:32.850Z,2.0
2023-04-27T02:20:23.068Z,2.4
2023-04-27T02:25:27.761Z,2.2
2023-04-27T02:30:16.776Z,2.4
2023-04-27T02:35:22.773Z,2.7
2023-04-27T02:40:28.862Z,2.7
2023-04-27T02:45:17.976Z,2.4
2023-04-27T02:50:23.562Z,2.4
2023-04-27T02:55:29.740Z,2.3
2023-04-27T03:00:20.107Z,2.1
2023-04-27T03:05:25.101Z,2.4
2023-04-27T03:10:31.167Z,2.0
2023-04-27T03:15:20.139Z,2.2
2023-04-27T03:20:26.316Z,2.3
2023-04-27T03:25:32.263Z,2.2
2023-04-27T03:30:21.407Z,2.3
2023-04-27T03:35:27.488Z,2.5
2023-04-27T03:40:33.429Z,2.6
2023-04-27T03:45:22.556Z,2.6
2023-04-27T03:50:30.060Z,2.6
2023-04-27T03:55:16.994Z,2.3
2023-04-27T04:00:28.404Z,2.4
2023-04-27T04:05:28.425Z,2.6
2023-04-27T04:10:17.570Z,2.6
2023-04-27T04:15:23.653Z,2.4
2023-04-27T04:20:29.744Z,2.7
2023-04-27T04:25:18.593Z,2.6
2023-04-27T04:30:24.771Z,2.4
2023-04-27T04:35:30.707Z,2.5
2023-04-27T04:40:21.298Z,2.3
2023-04-27T04:45:26.046Z,4.0
2023-04-27T04:50:31.735Z,5.1
2023-04-27T04:55:20.670Z,2.9
2023-04-27T05:00:29.102Z,2.5
2023-04-27T05:05:32.926Z,2.5
2023-04-27T05:10:22.058Z,2.6
2023-04-27T05:15:28.072Z,2.4
2023-04-27T05:20:18.086Z,2.5
2023-04-27T05:25:23.282Z,2.8
2023-04-27T05:30:29.320Z,2.7
2023-04-27T05:35:18.274Z,3.9
2023-04-27T05:40:25.418Z,3.5
2023-04-27T05:45:30.442Z,4.2
2023-04-27T05:50:19.026Z,4.0
2023-04-27T05:55:25.065Z,3.5
2023-04-27T06:00:34.157Z,3.3
2023-04-27T06:05:20.061Z,3.7
2023-04-27T06:10:25.673Z,3.6
2023-04-27T06:15:31.720Z,3.9
2023-04-27T06:20:21.674Z,4.0
2023-04-27T06:25:27.433Z,19.4
2023-04-27T06:30:32.900Z,16.8
2023-04-27T06:35:21.911Z,11.0
2023-04-27T06:40:28.001Z,7.3
2023-04-27T06:45:16.950Z,5.0
2023-04-27T06:50:22.562Z,3.4
2023-04-27T06:55:28.567Z,3.5
2023-04-27T07:00:17.847Z,3.4
2023-04-27T07:05:23.937Z,3.3
2023-04-27T07:10:30.052Z,3.4
2023-04-27T07:15:19.112Z,3.3
2023-04-27T07:20:25.401Z,3.1
2023-04-27T07:25:31.454Z,3.1
2023-04-27T07:30:20.279Z,3.0
2023-04-27T07:35:26.216Z,2.9
2023-04-27T07:40:32.418Z,2.8
2023-04-27T07:45:21.432Z,2.6
2023-04-27T07:50:27.120Z,2.7
2023-04-27T07:55:33.190Z,3.4
2023-04-27T08:00:25.723Z,2.7
2023-04-27T08:05:29.851Z,2.6
2023-04-27T08:10:16.617Z,2.7
2023-04-27T08:15:23.558Z,2.7
2023-04-27T08:20:28.817Z,2.9
2023-04-27T08:25:17.793Z,2.3
2023-04-27T08:30:24.152Z,2.4
2023-04-27T08:35:29.912Z,2.5
2023-04-27T08:40:20.089Z,2.6
2023-04-27T08:45:25.671Z,2.3
2023-04-27T08:50:30.674Z,2.3
2023-04-27T08:55:19.691Z,2.2
2023-04-27T09:00:27.153Z,2.6
2023-04-27T09:05:32.035Z,2.0
2023-04-27T09:10:21.047Z,2.1
2023-04-27T09:15:27.098Z,2.1
2023-04-27T09:20:33.342Z,1.9
2023-04-27T09:25:22.128Z,2.0
2023-04-27T09:30:28.277Z,5.2
2023-04-27T09:35:17.285Z,4.2
2023-04-27T09:40:24.665Z,2.4
2023-04-27T09:45:29.580Z,2.2
2023-04-27T09:50:18.092Z,2.2
2023-04-27T09:55:24.184Z,2.2
2023-04-27T10:00:35.645Z,2.2
2023-04-27T10:05:19.276Z,2.3
2023-04-27T10:10:25.391Z,2.5
2023-04-27T10:15:31.416Z,2.0
2023-04-27T10:20:22.752Z,3.4
2023-04-27T10:25:26.504Z,2.3
2023-04-27T10:30:33.110Z,2.6
2023-04-27T10:35:21.531Z,2.3
2023-04-27T10:40:27.606Z,2.7
2023-04-27T10:45:33.702Z,2.7
2023-04-27T10:50:22.488Z,2.2
2023-04-27T10:55:28.509Z,2.3
2023-04-27T11:00:17.803Z,2.5
2023-04-27T11:05:24.602Z,2.4
2023-04-27T11:10:30.016Z,3.6
2023-04-27T11:15:19.098Z,2.1
2023-04-27T11:20:26.234Z,2.0
2023-04-27T11:25:32.086Z,2.9
2023-04-27T11:30:20.258Z,2.2
2023-04-27T11:35:26.191Z,2.1
2023-04-27T11:40:32.367Z,1.9
2023-04-27T11:45:21.368Z,2.0
2023-04-27T11:50:26.675Z,1.8
2023-04-27T11:55:32.578Z,1.9
2023-04-27T12:00:27.553Z,2.3
2023-04-27T12:05:28.195Z,4.3
2023-04-27T12:10:17.696Z,7.1
2023-04-27T12:15:23.201Z,3.7
2023-04-27T12:20:29.329Z,1.9
2023-04-27T12:25:18.604Z,2.1
2023-04-27T12:30:24.416Z,2.0
2023-04-27T12:35:30.442Z,2.2
2023-04-27T12:40:19.425Z,2.0
2023-04-27T12:45:25.570Z,2.1
2023-04-27T12:50:31.207Z,2.2
2023-04-27T12:55:32.034Z,2.2
2023-04-27T13:00:27.551Z,2.1
2023-04-27T13:05:32.309Z,2.3
2023-04-27T13:10:20.522Z,2.5
2023-04-27T13:15:26.583Z,2.1
2023-04-27T13:20:32.554Z,2.1
2023-04-27T13:25:21.620Z,2.3
2023-04-27T13:30:27.719Z,2.0
2023-04-27T13:35:16.772Z,2.0
2023-04-27T13:40:23.772Z,2.6
2023-04-27T13:45:28.946Z,2.4
2023-04-27T13:50:17.563Z,2.4
2023-04-27T13:55:23.521Z,2.4
2023-04-27T14:00:33.789Z,2.8
2023-04-27T14:05:18.909Z,2.3
2023-04-27T14:10:27.139Z,3.1
2023-04-27T14:15:31.181Z,3.6
2023-04-27T14:20:21.196Z,3.4
2023-04-27T14:25:26.273Z,2.4
2023-04-27T14:30:32.832Z,3.0
2023-04-27T14:35:21.360Z,2.3
2023-04-27T14:40:27.996Z,2.3
2023-04-27T14:45:44.064Z,2.3
2023-04-27T14:50:22.036Z,1.9
2023-04-27T14:55:28.192Z,2.5
2023-04-27T15:00:18.521Z,2.2
2023-04-27T15:05:22.519Z,2.4
2023-04-27T15:10:28.721Z,2.4
2023-04-27T15:15:20.574Z,2.2
2023-04-27T15:20:24.408Z,2.4
2023-04-27T15:25:29.853Z,2.1
2023-04-27T15:30:18.994Z,2.3
2023-04-27T15:35:25.002Z,2.2
2023-04-27T15:40:31.268Z,2.1
2023-04-27T15:45:20.111Z,2.3
2023-04-27T15:50:25.650Z,2.3
2023-04-27T15:55:31.665Z,2.7
2023-04-27T16:00:26.184Z,3.2
2023-04-27T16:05:27.089Z,2.5
2023-04-27T16:10:33.231Z,2.3
2023-04-27T16:15:22.256Z,4.1
2023-04-27T16:20:28.234Z,4.4
2023-04-27T16:25:17.355Z,3.8
2023-04-27T16:30:23.471Z,2.5
2023-04-27T16:35:29.679Z,2.6
2023-04-27T16:40:20.007Z,3.5
2023-04-27T16:45:24.955Z,2.5
2023-04-27T16:50:30.285Z,2.7
2023-04-27T16:55:19.392Z,2.6
2023-04-27T17:00:27.120Z,2.1
2023-04-27T17:05:31.497Z,2.6
2023-04-27T17:10:20.500Z,2.6
2023-04-27T17:15:26.731Z,2.4
2023-04-27T17:20:32.818Z,2.1
2023-04-27T17:25:21.685Z,2.0
2023-04-27T17:30:27.950Z,2.1
2023-04-27T17:35:16.892Z,2.7
2023-04-27T17:40:24.560Z,2.1
2023-04-27T17:45:29.356Z,1.8
2023-04-27T17:50:17.620Z,1.8
2023-04-27T17:55:23.710Z,1.6
2023-04-27T18:00:33.865Z,1.7
2023-04-27T18:05:19.158Z,1.6
2023-04-27T18:10:25.167Z,1.5
2023-04-27T18:15:31.228Z,1.7
2023-04-27T18:20:23.353Z,1.7
2023-04-27T18:25:26.312Z,1.6
2023-04-27T18:30:32.396Z,2.1
2023-04-27T18:35:21.440Z,2.3
2023-04-27T18:40:27.691Z,1.9
2023-04-27T18:45:33.719Z,1.9
2023-04-27T18:50:21.939Z,1.7
2023-04-27T18:55:28.086Z,2.0
2023-04-27T19:00:17.892Z,1.7
2023-04-27T19:05:23.109Z,1.9
2023-04-27T19:10:28.525Z,1.9
2023-04-27T19:15:17.575Z,1.8
2023-04-27T19:20:24.692Z,2.0
2023-04-27T19:25:29.697Z,2.0
2023-04-27T19:30:18.788Z,2.0
2023-04-27T19:35:24.675Z,1.9
2023-04-27T19:40:30.952Z,2.3
2023-04-27T19:45:19.981Z,2.1
2023-04-27T19:50:25.402Z,2.0
2023-04-27T19:55:31.524Z,1.9
2023-04-27T20:00:24.512Z,1.9
2023-04-27T20:05:27.064Z,2.0
2023-04-27T20:10:34.481Z,1.8
2023-04-27T20:15:22.014Z,1.7
2023-04-27T20:20:28.126Z,2.2
2023-04-27T20:25:17.080Z,2.3
2023-04-27T20:30:23.210Z,2.0
2023-04-27T20:35:29.224Z,2.3
2023-04-27T20:40:19.091Z,2.1
2023-04-27T20:45:24.361Z,2.2
2023-04-27T20:50:29.848Z,2.3
2023-04-27T20:55:18.780Z,2.4
2023-04-27T21:00:26.351Z,2.5
2023-04-27T21:05:31.755Z,2.4
2023-04-27T21:10:20.281Z,2.4
2023-04-27T21:15:26.130Z,2.4
2023-04-27T21:20:32.347Z,3.0
2023-04-27T21:25:23.621Z,2.5
2023-04-27T21:30:28.285Z,2.5
2023-04-27T21:35:33.420Z,2.7
2023-04-27T21:40:23.417Z,2.5
2023-04-27T21:45:28.513Z,2.8
2023-04-27T21:50:17.487Z,2.6
2023-04-27T21:55:23.329Z,3.1
2023-04-27T22:00:32.656Z,2.9
2023-04-27T22:05:18.837Z,2.8
2023-04-27T22:10:24.850Z,2.7
2023-04-27T22:15:30.783Z,2.9
2023-04-27T22:20:22.405Z,2.9
2023-04-27T22:25:25.846Z,2.9
2023-04-27T22:30:32.123Z,2.8
2023-04-27T22:35:29.054Z,3.2
2023-04-27T22:40:27.183Z,4.0
2023-04-27T22:45:33.207Z,3.9
2023-04-27T22:50:21.722Z,3.4
2023-04-27T22:55:27.795Z,3.2
2023-04-27T23:00:17.030Z,3.2
2023-04-27T23:05:23.195Z,3.3
2023-04-27T23:10:29.270Z,3.4
2023-04-27T23:15:18.296Z,3.9
2023-04-27T23:20:28.590Z,4.1
2023-04-27T23:25:30.290Z,4.5
2023-04-27T23:30:19.442Z,4.1
2023-04-27T23:35:25.533Z,3.9
2023-04-27T23:40:31.613Z,4.0
2023-04-27T23:45:20.620Z,3.6
2023-04-27T23:50:26.290Z,3.4
2023-04-27T23:55:32.486Z,4.1
